Ikermiuarsuk

KL  EN  DA
ASIAQ
Weather Now GREENLAND SURVEY
Updated [WGT/WGST] Temperature [°C] Wind [m/s] Air pressure [hPa] Relative humidity [%] Precipitation [mm]
Present Wind chill Speed Max
23.02 10:00-0,8-4,63,1 ⇓7,299342n/a
23.02 09:00-2,1-6,13,1 ⇓6,799240n/a
23.02 08:00-1,9-4,82,1 ⇓3,699237n/a
23.02 07:00-5,2-9,32,6 ⇓3,699249n/a
23.02 06:00-2,9-7,13,1 ⇓4,199137n/a
23.02 05:00-4,4-6,81,5 ⇓2,199145n/a
23.02 04:00-4,80,01,0 ⇓2,199149n/a
23.02 03:00-2,90,00,5 ⇓1,099141n/a
23.02 02:00-4,1-9,03,6 ⇓5,199152n/a
23.02 01:00-4,50,00,5 ⇓1,599056n/a
23.02 00:00-4,6-8,62,6 ⇓3,199059n/a
22.02 23:00-5,6-9,82,6 ⇓4,199071n/a
22.02 22:00-3,3-7,02,6 ⇓3,198954n/a
22.02 21:00-3,3-5,51,5 ⇓2,198851n/a
22.02 20:00-2,0-5,52,6 ⇓3,198744n/a
22.02 19:00-3,4-6,62,1 ⇓3,198656n/a
22.02 18:00-1,8-3,81,5 ⇓2,198547n/a
22.02 17:00-2,2-5,12,1 ⇓3,698454n/a
22.02 16:00-0,7-3,42,1 ⇓3,698346n/a
22.02 15:00-1,1-3,01,5 ⇓2,698251n/a
22.02 14:00-1,3-4,72,6 ⇓3,698151n/a
22.02 13:00-1,8-4,72,1 ⇓3,698059n/a
22.02 12:00-3,0-7,23,1 ⇓4,197971n/a
22.02 11:00-4,3-9,64,1 ⇓5,797870n/a
22.02 10:00-3,8-10,15,7 ⇓7,297770n/a
Position: (61.936389,-42.067778)

[Back]